Time;durP1;ratioP1;P1;durP2;ratioP2;P2;SDS_P1;SDS_P2;PMS_P1;PMS_P2;Temp;Humidity;BMP_temperature;BMP_pressure;BME280_temperature;BME280_humidity;BME280_pressure;Samples;Min_cycle;Max_cycle;Signal;HPM_P1;HPM_P2
2022/07/13 00:01:44;;;;;;;1.10;1.00;;;19.80;99.90;;;;;;4140410;28;20547;-83
2022/07/13 00:04:05;;;;;;;0.60;0.60;;;19.70;99.90;;;;;;4144543;28;20110;-83
2022/07/13 00:06:26;;;;;;;0.65;0.60;;;19.70;99.90;;;;;;4158538;28;20962;-83
2022/07/13 00:08:47;;;;;;;1.45;0.60;;;19.70;99.90;;;;;;4160413;28;20536;-83
2022/07/13 00:11:08;;;;;;;1.85;0.70;;;19.60;99.90;;;;;;4164153;28;20063;-83
2022/07/13 00:13:28;;;;;;;1.65;0.65;;;19.60;99.90;;;;;;4148125;28;20064;-83
2022/07/13 00:15:49;;;;;;;0.60;0.60;;;19.60;99.90;;;;;;4158618;28;20539;-82
2022/07/13 00:18:09;;;;;;;0.60;0.60;;;19.50;99.90;;;;;;4159681;28;20049;-82
2022/07/13 00:20:30;;;;;;;0.80;0.80;;;19.40;99.90;;;;;;4137104;28;20064;-83
2022/07/13 00:22:51;;;;;;;0.70;0.70;;;19.30;99.90;;;;;;4155688;28;20060;-82
2022/07/13 00:25:12;;;;;;;0.60;0.60;;;19.30;99.90;;;;;;4143716;28;20174;-82
2022/07/13 00:27:32;;;;;;;0.70;0.70;;;19.20;99.90;;;;;;4157031;28;20060;-83
2022/07/13 00:29:53;;;;;;;0.70;0.70;;;19.00;99.90;;;;;;4145164;28;20117;-82
2022/07/13 00:32:13;;;;;;;0.70;0.70;;;18.90;99.90;;;;;;4144021;28;20048;-82
2022/07/13 00:34:34;;;;;;;0.70;0.70;;;18.80;99.90;;;;;;4142816;28;20049;-82
2022/07/13 00:36:55;;;;;;;0.70;0.70;;;18.80;99.90;;;;;;4144497;28;20112;-82
2022/07/13 00:39:16;;;;;;;0.70;0.70;;;18.80;99.90;;;;;;4159676;28;20045;-83
2022/07/13 00:41:45;;;;;;;0.70;0.70;;;18.70;99.90;;;;;;4129082;28;20102;-82
2022/07/13 00:44:09;;;;;;;1.45;0.70;;;18.60;99.90;;;;;;4155257;28;20132;-82
2022/07/13 00:46:30;;;;;;;1.05;0.65;;;18.60;99.90;;;;;;4143749;28;20127;-82
2022/07/13 00:48:50;;;;;;;0.77;0.77;;;18.50;99.90;;;;;;4144914;28;20060;-82
2022/07/13 00:51:11;;;;;;;0.77;0.70;;;18.40;99.90;;;;;;4143621;28;20747;-82
2022/07/13 00:53:36;;;;;;;4.32;1.52;;;18.50;99.90;;;;;;4150083;28;20503;-82
2022/07/13 00:55:57;;;;;;;0.70;0.70;;;18.60;99.90;;;;;;4145067;28;20049;-82
2022/07/13 00:58:18;;;;;;;1.30;0.65;;;18.60;99.90;;;;;;4157750;28;20120;-82
2022/07/13 01:00:39;;;;;;;1.42;0.70;;;18.60;99.90;;;;;;4157734;28;20141;-82
2022/07/13 01:02:59;;;;;;;0.70;0.70;;;18.60;99.90;;;;;;4144304;28;20056;-82
2022/07/13 01:05:20;;;;;;;2.05;0.70;;;18.60;99.90;;;;;;4158641;28;20123;-82
2022/07/13 01:07:41;;;;;;;2.05;0.80;;;18.70;99.90;;;;;;4148070;28;20053;-82
2022/07/13 01:10:07;;;;;;;0.70;0.70;;;18.70;99.90;;;;;;4162256;28;20479;-82
2022/07/13 01:12:30;;;;;;;0.70;0.70;;;18.70;99.90;;;;;;4178004;28;20075;-83
2022/07/13 01:14:51;;;;;;;0.70;0.70;;;18.80;99.90;;;;;;4160692;28;20051;-82
2022/07/13 01:17:12;;;;;;;0.90;0.90;;;18.80;99.90;;;;;;4160927;28;20063;-82
2022/07/13 01:19:34;;;;;;;0.80;0.80;;;18.80;99.90;;;;;;4162910;28;20053;-82
2022/07/13 01:22:00;;;;;;;0.80;0.70;;;18.80;99.90;;;;;;4161553;28;20068;-82
2022/07/13 01:24:21;;;;;;;1.00;0.73;;;18.80;99.90;;;;;;4162153;28;20095;-82
2022/07/13 01:26:42;;;;;;;0.70;0.70;;;18.80;99.90;;;;;;4162291;28;20099;-82
2022/07/13 01:29:04;;;;;;;0.77;0.70;;;18.80;99.90;;;;;;4145434;28;20866;-82
2022/07/13 01:31:34;;;;;;;2.40;0.60;;;18.90;99.90;;;;;;4143050;28;20348;-82
2022/07/13 01:33:54;;;;;;;2.60;0.60;;;18.90;99.90;;;;;;4161815;28;20092;-82
2022/07/13 01:36:15;;;;;;;0.60;0.60;;;19.00;99.90;;;;;;4160946;28;20615;-82
2022/07/13 01:38:35;;;;;;;0.65;0.65;;;19.00;99.90;;;;;;4163005;28;20117;-82
2022/07/13 01:40:56;;;;;;;0.65;0.65;;;18.80;99.90;;;;;;4162504;28;20047;-82
2022/07/13 01:43:17;;;;;;;1.23;0.63;;;18.60;99.90;;;;;;4160239;28;20148;-82
2022/07/13 01:45:37;;;;;;;0.70;0.70;;;18.50;99.90;;;;;;4145554;28;20141;-82
2022/07/13 01:47:58;;;;;;;1.65;0.80;;;18.40;99.90;;;;;;4146475;28;20409;-82
2022/07/13 01:50:22;;;;;;;0.63;0.63;;;18.50;99.90;;;;;;4157870;28;20060;-82
2022/07/13 01:52:42;;;;;;;0.98;0.98;;;18.40;99.90;;;;;;4161003;28;20051;-82
2022/07/13 01:55:05;;;;;;;0.98;0.98;;;18.40;99.90;;;;;;4146328;28;20472;-82
2022/07/13 01:57:25;;;;;;;1.05;0.70;;;18.20;99.90;;;;;;4145864;28;20627;-82
2022/07/13 01:59:46;;;;;;;1.30;0.70;;;18.10;99.90;;;;;;4156741;28;20052;-82
2022/07/13 02:02:06;;;;;;;0.70;0.70;;;18.00;99.90;;;;;;4160169;28;20535;-82
2022/07/13 02:04:27;;;;;;;0.70;0.70;;;18.00;99.90;;;;;;4161143;28;20524;-82
2022/07/13 02:06:49;;;;;;;1.48;0.70;;;18.00;99.90;;;;;;4149922;28;20056;-82
2022/07/13 02:09:10;;;;;;;1.43;0.60;;;18.10;99.90;;;;;;4155408;28;20121;-82
2022/07/13 02:11:31;;;;;;;1.25;0.70;;;18.00;99.90;;;;;;4147257;28;20056;-82
2022/07/13 02:13:51;;;;;;;0.70;0.70;;;17.90;99.90;;;;;;4146301;28;20112;-82
2022/07/13 02:16:13;;;;;;;0.70;0.70;;;17.90;99.90;;;;;;4157341;28;20131;-82
2022/07/13 02:18:33;;;;;;;3.22;0.70;;;18.00;99.90;;;;;;4160629;28;20113;-82
2022/07/13 02:20:54;;;;;;;0.77;0.77;;;17.90;99.90;;;;;;4159699;28;20523;-82
2022/07/13 02:23:15;;;;;;;0.88;0.73;;;18.00;99.90;;;;;;4160653;28;20526;-82
2022/07/13 02:25:37;;;;;;;0.93;0.70;;;18.00;99.90;;;;;;4161375;28;20084;-82
2022/07/13 02:27:58;;;;;;;0.70;0.70;;;18.10;99.90;;;;;;4146861;28;20132;-82
2022/07/13 02:30:19;;;;;;;0.70;0.70;;;18.10;99.90;;;;;;4161123;28;20754;-82
2022/07/13 02:32:46;;;;;;;0.70;0.70;;;17.80;99.90;;;;;;4145122;28;20049;-82
2022/07/13 02:35:06;;;;;;;0.93;0.93;;;17.70;99.90;;;;;;4161804;28;20045;-82
2022/07/13 02:37:27;;;;;;;1.05;0.70;;;17.50;99.90;;;;;;4160550;28;20040;-82
2022/07/13 02:39:48;;;;;;;0.70;0.70;;;17.50;99.90;;;;;;4146576;28;20068;-82
2022/07/13 02:42:08;;;;;;;2.17;0.60;;;17.60;99.90;;;;;;4161214;28;20740;-82
2022/07/13 02:44:29;;;;;;;0.98;0.98;;;17.60;99.90;;;;;;4160430;28;20071;-82
2022/07/13 02:46:49;;;;;;;0.80;0.80;;;17.60;99.90;;;;;;4160715;28;20052;-82
2022/07/13 02:49:10;;;;;;;1.00;1.00;;;17.40;99.90;;;;;;4146817;28;20141;-82
2022/07/13 02:51:31;;;;;;;0.80;0.80;;;17.20;99.90;;;;;;4134725;28;20053;-82
2022/07/13 02:53:52;;;;;;;2.80;0.80;;;17.00;99.90;;;;;;4145641;28;20053;-82
2022/07/13 02:56:13;;;;;;;0.80;0.80;;;17.20;99.90;;;;;;4161287;28;20076;-82
2022/07/13 02:58:33;;;;;;;0.73;0.73;;;17.10;99.90;;;;;;4146534;28;20071;-82
2022/07/13 03:00:54;;;;;;;0.80;0.80;;;17.10;99.90;;;;;;4142361;28;20125;-82
2022/07/13 03:03:15;;;;;;;0.80;0.80;;;17.20;99.90;;;;;;4160384;28;20064;-82
2022/07/13 03:05:35;;;;;;;1.05;0.75;;;17.40;99.90;;;;;;4146504;28;20056;-82
2022/07/13 03:07:56;;;;;;;0.80;0.80;;;17.40;99.90;;;;;;4140660;28;20073;-82
2022/07/13 03:10:16;;;;;;;0.70;0.70;;;17.40;99.90;;;;;;4161064;28;20628;-82
2022/07/13 03:12:37;;;;;;;1.13;0.80;;;17.30;99.90;;;;;;4145730;28;20193;-82
2022/07/13 03:14:58;;;;;;;0.70;0.70;;;17.20;99.90;;;;;;4161002;28;20116;-82
2022/07/13 03:17:18;;;;;;;0.80;0.80;;;17.10;99.90;;;;;;4133675;28;20150;-82
2022/07/13 03:19:39;;;;;;;1.13;0.70;;;17.20;99.90;;;;;;4143416;28;20202;-82
2022/07/13 03:22:03;;;;;;;0.80;0.80;;;17.20;99.90;;;;;;4131241;28;20477;-82
2022/07/13 03:24:24;;;;;;;0.80;0.80;;;17.10;99.90;;;;;;4156347;28;20077;-82
2022/07/13 03:26:44;;;;;;;0.80;0.80;;;17.10;99.90;;;;;;4161177;28;20084;-82
2022/07/13 03:29:05;;;;;;;1.15;1.13;;;17.10;99.90;;;;;;4160648;28;20088;-82
2022/07/13 03:31:26;;;;;;;1.10;0.80;;;17.10;99.90;;;;;;4157777;28;20135;-82
2022/07/13 03:33:48;;;;;;;1.02;0.70;;;17.00;99.90;;;;;;4144948;28;20139;-82
2022/07/13 03:36:09;;;;;;;2.50;0.90;;;16.90;99.90;;;;;;4129625;28;20078;-82
2022/07/13 03:38:31;;;;;;;1.45;0.90;;;17.10;99.90;;;;;;4157157;28;20158;-82
2022/07/13 03:40:51;;;;;;;0.85;0.85;;;17.10;99.90;;;;;;4160160;28;20053;-82
2022/07/13 03:43:12;;;;;;;0.82;0.82;;;17.00;99.90;;;;;;4159878;28;20140;-82
2022/07/13 03:45:33;;;;;;;0.90;0.90;;;16.90;99.90;;;;;;4157822;28;20465;-82
2022/07/13 03:47:53;;;;;;;0.90;0.90;;;16.90;99.90;;;;;;4160293;28;20138;-82
2022/07/13 03:50:14;;;;;;;0.70;0.70;;;16.80;99.90;;;;;;4145437;28;20541;-82
2022/07/13 03:52:36;;;;;;;2.72;0.80;;;16.80;99.90;;;;;;4158551;28;20063;-82
2022/07/13 03:54:57;;;;;;;2.58;0.90;;;16.60;99.90;;;;;;4160494;28;20099;-82
2022/07/13 03:57:18;;;;;;;0.80;0.80;;;16.50;99.90;;;;;;4145440;28;20052;-82
2022/07/13 03:59:39;;;;;;;3.10;0.93;;;16.20;99.90;;;;;;4145330;28;20085;-82
2022/07/13 04:02:07;;;;;;;1.20;1.00;;;16.10;99.90;;;;;;4145654;28;20415;-82
2022/07/13 04:04:28;;;;;;;0.90;0.90;;;16.30;99.90;;;;;;4159681;28;20056;-82
2022/07/13 04:06:48;;;;;;;0.90;0.90;;;16.30;99.90;;;;;;4160556;28;20527;-82
2022/07/13 04:09:08;;;;;;;1.48;0.90;;;16.50;99.90;;;;;;4144827;28;20096;-82
2022/07/13 04:11:29;;;;;;;1.00;1.00;;;16.50;99.90;;;;;;4153784;28;20121;-82
2022/07/13 04:13:49;;;;;;;0.85;0.85;;;16.50;99.90;;;;;;4160199;28;20129;-82
2022/07/13 04:16:10;;;;;;;2.78;1.05;;;16.50;99.90;;;;;;4158667;28;20040;-82
2022/07/13 04:18:32;;;;;;;1.40;0.93;;;16.50;99.90;;;;;;4145055;28;20052;-82
2022/07/13 04:20:53;;;;;;;0.90;0.90;;;16.50;99.90;;;;;;4147564;28;20091;-82
2022/07/13 04:23:14;;;;;;;1.98;1.80;;;16.50;99.90;;;;;;4144276;28;20134;-82
2022/07/13 04:25:35;;;;;;;0.90;0.90;;;16.40;99.90;;;;;;4143252;28;20080;-82
2022/07/13 04:27:56;;;;;;;3.75;0.90;;;16.30;99.90;;;;;;4157183;28;20108;-82
2022/07/13 04:30:17;;;;;;;1.00;1.00;;;16.30;99.90;;;;;;4157005;28;20084;-82
2022/07/13 04:32:38;;;;;;;2.13;0.90;;;16.30;99.90;;;;;;4159885;28;20052;-82
2022/07/13 04:34:58;;;;;;;2.28;0.82;;;16.20;99.90;;;;;;4143669;28;20479;-82
2022/07/13 04:37:19;;;;;;;2.03;1.02;;;16.20;99.90;;;;;;4158047;28;20051;-82
2022/07/13 04:39:40;;;;;;;1.00;1.00;;;16.10;99.90;;;;;;4159844;28;20543;-82
2022/07/13 04:42:01;;;;;;;1.00;1.00;;;16.00;99.90;;;;;;4144773;28;20141;-82
2022/07/13 04:44:22;;;;;;;0.98;0.93;;;16.00;99.90;;;;;;4160199;28;20072;-82
2022/07/13 04:46:42;;;;;;;1.00;1.00;;;16.10;99.90;;;;;;4144297;28;20048;-82
2022/07/13 04:49:03;;;;;;;1.55;1.00;;;16.10;99.90;;;;;;4159608;28;20048;-82
2022/07/13 04:51:25;;;;;;;0.93;0.90;;;16.10;99.90;;;;;;4149179;28;20595;-82
2022/07/13 04:53:45;;;;;;;2.35;1.40;;;16.10;99.90;;;;;;4159965;28;20568;-82
2022/07/13 04:56:07;;;;;;;1.00;1.00;;;16.10;99.90;;;;;;4128763;28;20053;-82
2022/07/13 04:58:27;;;;;;;3.65;1.30;;;16.20;99.90;;;;;;4153490;28;20516;-82
2022/07/13 05:00:48;;;;;;;2.45;1.20;;;16.20;99.90;;;;;;4155033;28;20060;-82
2022/07/13 05:03:29;;;;;;;1.15;1.15;;;16.20;99.90;;;;;;4136846;28;20138;-82
2022/07/13 05:05:50;;;;;;;2.55;1.00;;;16.30;99.90;;;;;;4128523;28;20053;-82
2022/07/13 05:08:11;;;;;;;3.28;1.20;;;16.40;99.90;;;;;;4155669;28;20470;-82
2022/07/13 05:10:31;;;;;;;1.50;1.23;;;16.40;99.90;;;;;;4144592;28;20100;-82
2022/07/13 05:12:52;;;;;;;1.10;1.10;;;16.50;99.90;;;;;;4143253;28;20048;-82
2022/07/13 05:15:33;;;;;;;2.60;1.08;;;16.50;99.90;;;;;;4143597;28;20123;-84
2022/07/13 05:17:56;;;;;;;1.35;1.08;;;16.60;99.90;;;;;;4157363;28;21010;-84
2022/07/13 05:20:17;;;;;;;2.85;1.25;;;16.60;99.90;;;;;;4144693;28;20125;-84
2022/07/13 05:22:38;;;;;;;2.70;1.55;;;16.70;99.90;;;;;;4159815;28;20536;-88
2022/07/13 05:24:59;;;;;;;1.55;1.42;;;16.70;99.90;;;;;;4159965;28;20052;-88
2022/07/13 05:27:20;;;;;;;1.20;1.08;;;16.70;99.90;;;;;;4159310;28;20145;-89
2022/07/13 05:29:41;;;;;;;4.78;1.40;;;16.70;99.90;;;;;;4159750;28;20104;-88
2022/07/13 05:32:03;;;;;;;6.43;1.95;;;16.90;99.90;;;;;;4159870;28;20493;-89
2022/07/13 05:34:23;;;;;;;2.05;1.92;;;16.90;99.90;;;;;;4129732;28;20138;-89
2022/07/13 05:36:44;;;;;;;2.00;1.10;;;17.10;99.90;;;;;;4138722;28;20683;-88
2022/07/13 05:39:05;;;;;;;2.65;1.50;;;17.20;99.90;;;;;;4147078;28;20056;-88
2022/07/13 05:41:27;;;;;;;1.65;1.55;;;17.30;99.90;;;;;;4160027;28;20100;-89
2022/07/13 05:43:48;;;;;;;2.63;1.08;;;17.30;99.90;;;;;;4160239;28;20143;-88
2022/07/13 05:46:08;;;;;;;2.75;1.00;;;17.40;99.90;;;;;;4159851;28;20103;-86
2022/07/13 05:48:29;;;;;;;6.00;1.23;;;17.60;99.90;;;;;;4144794;28;20646;-86
2022/07/13 05:50:51;;;;;;;1.50;1.20;;;17.90;99.90;;;;;;4144586;28;20112;-85
2022/07/13 05:53:31;;;;;;;2.20;0.90;;;17.90;99.90;;;;;;4145179;28;20052;-86
2022/07/13 05:55:52;;;;;;;1.40;1.20;;;18.10;99.90;;;;;;4157805;28;20103;-86
2022/07/13 05:58:13;;;;;;;9.23;1.17;;;18.10;99.90;;;;;;4162517;28;20602;-86
2022/07/13 06:00:34;;;;;;;1.65;0.90;;;18.20;99.90;;;;;;4162788;28;20087;-86
2022/07/13 06:02:56;;;;;;;1.08;0.80;;;18.30;99.90;;;;;;4147999;28;20065;-86
2022/07/13 06:05:17;;;;;;;2.22;0.90;;;18.40;99.90;;;;;;4148154;28;20064;-86
2022/07/13 06:07:37;;;;;;;3.53;1.40;;;18.60;99.90;;;;;;4162726;28;20129;-86
2022/07/13 06:10:00;;;;;;;1.70;0.85;;;19.10;99.90;;;;;;4162782;28;20079;-86
2022/07/13 06:12:21;;;;;;;4.32;1.23;;;19.10;99.90;;;;;;4147537;28;20052;-85
2022/07/13 06:14:43;;;;;;;6.47;0.93;;;19.10;99.90;;;;;;4147754;28;20182;-86
2022/07/13 06:17:03;;;;;;;6.20;0.80;;;19.10;99.90;;;;;;4161992;28;20048;-86
2022/07/13 06:19:24;;;;;;;1.48;0.90;;;19.20;99.90;;;;;;4162553;28;20540;-86
2022/07/13 06:21:45;;;;;;;1.40;0.90;;;19.20;99.90;;;;;;4162312;28;20150;-86
2022/07/13 06:24:06;;;;;;;2.50;0.95;;;19.40;99.90;;;;;;4162823;28;20571;-86
2022/07/13 06:26:26;;;;;;;3.63;1.20;;;19.50;99.90;;;;;;4162231;28;20056;-86
2022/07/13 06:28:47;;;;;;;5.63;1.00;;;20.00;99.90;;;;;;4162689;28;20460;-86
2022/07/13 06:31:15;;;;;;;3.47;0.90;;;20.30;99.90;;;;;;4162350;28;20131;-86
2022/07/13 06:33:36;;;;;;;3.33;0.80;;;20.20;99.90;;;;;;4147261;28;20157;-86
2022/07/13 06:35:57;;;;;;;4.00;0.90;;;20.40;99.90;;;;;;4162201;28;20052;-87
2022/07/13 06:38:17;;;;;;;1.90;0.90;;;20.50;99.90;;;;;;4147362;28;20053;-86
2022/07/13 06:40:38;;;;;;;5.40;0.82;;;20.60;99.90;;;;;;4147379;28;20157;-86
2022/07/13 06:43:00;;;;;;;3.63;0.75;;;20.60;99.90;;;;;;4147403;28;20190;-86
2022/07/13 06:45:22;;;;;;;1.83;0.70;;;20.70;99.90;;;;;;4162359;28;20083;-87
2022/07/13 06:47:43;;;;;;;0.70;0.70;;;20.80;99.90;;;;;;4146997;28;20053;-87
2022/07/13 06:50:06;;;;;;;0.80;0.80;;;21.00;99.90;;;;;;4147085;28;20107;-87
2022/07/13 06:52:27;;;;;;;0.82;0.70;;;21.10;99.90;;;;;;4147409;28;20084;-87
2022/07/13 06:54:48;;;;;;;5.22;0.85;;;21.50;99.90;;;;;;4162223;28;20079;-87
2022/07/13 06:57:09;;;;;;;2.00;0.60;;;21.60;99.90;;;;;;4147192;28;20052;-87
2022/07/13 06:59:30;;;;;;;0.60;0.60;;;21.70;99.90;;;;;;4162138;28;20210;-87
2022/07/13 07:01:52;;;;;;;0.70;0.70;;;21.80;99.90;;;;;;4146584;28;20045;-87
2022/07/13 07:04:12;;;;;;;2.27;0.77;;;21.90;99.90;;;;;;4161380;28;20518;-87
2022/07/13 07:06:33;;;;;;;0.70;0.55;;;22.00;99.90;;;;;;4161947;28;20115;-87
2022/07/13 07:08:55;;;;;;;0.90;0.60;;;22.20;99.90;;;;;;4145454;28;20061;-87
2022/07/13 07:11:16;;;;;;;9.80;1.05;;;22.40;99.90;;;;;;4141590;28;20064;-86
2022/07/13 07:13:36;;;;;;;1.35;0.60;;;22.70;99.90;;;;;;4146592;28;20129;-87
2022/07/13 07:15:59;;;;;;;1.60;0.50;;;23.50;99.90;;;;;;4147350;28;20532;-87
2022/07/13 07:18:21;;;;;;;0.50;0.50;;;23.90;99.90;;;;;;4157322;28;20048;-88
2022/07/13 07:20:42;;;;;;;1.75;0.60;;;23.90;99.90;;;;;;4146509;28;20045;-88
2022/07/13 07:23:03;;;;;;;0.63;0.60;;;23.80;99.90;;;;;;4160858;28;20056;-87
2022/07/13 07:25:24;;;;;;;1.55;0.50;;;24.10;99.90;;;;;;4161710;28;20133;-87
2022/07/13 07:27:46;;;;;;;1.25;0.50;;;24.30;99.90;;;;;;4146550;28;20050;-87
2022/07/13 07:30:07;;;;;;;0.65;0.40;;;24.30;99.90;;;;;;4146442;28;20052;-88
2022/07/13 07:32:28;;;;;;;0.40;0.40;;;24.40;99.90;;;;;;4161375;28;20605;-87
2022/07/13 07:34:49;;;;;;;0.40;0.40;;;24.60;99.90;;;;;;4146564;28;20056;-87
2022/07/13 07:37:09;;;;;;;0.40;0.40;;;24.70;99.90;;;;;;4161203;28;20056;-87
2022/07/13 07:39:31;;;;;;;0.40;0.40;;;24.90;99.90;;;;;;4146423;28;20045;-87
2022/07/13 07:41:51;;;;;;;0.40;0.40;;;25.00;99.90;;;;;;4161384;28;20533;-87
2022/07/13 07:44:12;;;;;;;0.40;0.40;;;25.40;99.90;;;;;;4161195;28;20589;-87
2022/07/13 07:46:33;;;;;;;0.35;0.35;;;25.70;99.20;;;;;;4161404;28;20127;-87
2022/07/13 07:48:56;;;;;;;0.30;0.30;;;25.80;97.20;;;;;;4146290;28;20590;-87
2022/07/13 07:51:17;;;;;;;1.60;0.40;;;25.90;97.10;;;;;;4145017;28;20135;-87
2022/07/13 07:53:38;;;;;;;0.30;0.30;;;25.90;96.60;;;;;;4144648;28;20132;-87
2022/07/13 07:55:59;;;;;;;0.80;0.30;;;25.90;96.30;;;;;;4156461;28;20515;-87
2022/07/13 07:58:20;;;;;;;0.73;0.30;;;25.90;94.50;;;;;;4146444;28;20048;-87
2022/07/13 08:00:42;;;;;;;0.32;0.32;;;26.00;95.00;;;;;;4146117;28;20599;-87
2022/07/13 08:03:03;;;;;;;0.30;0.30;;;26.00;94.60;;;;;;4160814;28;20099;-87
2022/07/13 08:05:24;;;;;;;0.57;0.27;;;26.10;94.80;;;;;;4160980;28;20093;-88
2022/07/13 08:07:45;;;;;;;1.95;0.50;;;26.30;94.50;;;;;;4160595;28;20088;-88
2022/07/13 08:10:07;;;;;;;1.17;0.30;;;26.40;94.00;;;;;;4160766;28;20060;-87
2022/07/13 08:12:46;;;;;;;0.30;0.30;;;26.50;93.40;;;;;;4132363;28;20441;-87
2022/07/13 08:15:07;;;;;;;0.30;0.30;;;26.50;93.00;;;;;;4140979;28;20082;-87
2022/07/13 08:17:28;;;;;;;0.80;0.30;;;26.60;93.40;;;;;;4160288;28;20052;-88
2022/07/13 08:19:49;;;;;;;0.30;0.30;;;27.00;92.60;;;;;;4143397;28;20084;-87
2022/07/13 08:22:10;;;;;;;0.65;0.30;;;27.40;92.90;;;;;;4129566;28;20061;-88
2022/07/13 08:24:31;;;;;;;0.25;0.25;;;27.50;91.70;;;;;;4154431;28;20064;-88
2022/07/13 08:26:53;;;;;;;0.20;0.20;;;27.50;92.00;;;;;;4146127;28;20557;-88
2022/07/13 08:29:14;;;;;;;0.30;0.30;;;27.60;92.60;;;;;;4145947;28;20354;-88
2022/07/13 08:31:35;;;;;;;0.20;0.20;;;27.90;91.90;;;;;;4145293;28;20136;-88
2022/07/13 08:39:17;;;;;;;2.28;0.20;;;27.90;90.10;;;;;;4160384;28;20059;-87
2022/07/13 08:41:40;;;;;;;1.00;0.40;;;27.90;90.50;;;;;;4160696;28;20056;-87
2022/07/13 08:44:01;;;;;;;0.30;0.30;;;27.90;89.40;;;;;;4160275;28;20674;-88
2022/07/13 08:46:22;;;;;;;0.35;0.30;;;27.90;89.00;;;;;;4160550;28;20052;-88
2022/07/13 08:48:47;;;;;;;0.30;0.30;;;27.90;90.20;;;;;;4160394;28;20076;-87
2022/07/13 08:51:08;;;;;;;0.30;0.30;;;28.00;88.50;;;;;;4160311;28;20080;-87
2022/07/13 08:53:28;;;;;;;0.20;0.20;;;28.30;90.20;;;;;;4160385;28;20495;-88
2022/07/13 08:55:50;;;;;;;0.20;0.20;;;28.40;88.50;;;;;;4145552;28;20049;-87
2022/07/13 08:58:13;;;;;;;0.20;0.20;;;28.40;86.30;;;;;;4145639;28;20049;-86
2022/07/13 09:00:34;;;;;;;0.28;0.20;;;28.80;87.40;;;;;;4145567;28;20452;-86
2022/07/13 09:02:55;;;;;;;0.20;0.20;;;28.40;87.50;;;;;;4145274;28;20084;-85
2022/07/13 09:05:20;;;;;;;0.20;0.20;;;28.60;83.20;;;;;;4160451;28;20080;-86
2022/07/13 09:07:41;;;;;;;0.20;0.20;;;28.70;83.10;;;;;;4145627;28;20752;-86
2022/07/13 09:10:03;;;;;;;0.20;0.20;;;28.70;84.20;;;;;;4129345;28;20061;-86
2022/07/13 09:12:29;;;;;;;0.20;0.20;;;29.00;83.90;;;;;;4144437;28;20057;-86
2022/07/13 09:14:51;;;;;;;0.20;0.20;;;29.30;81.80;;;;;;4159807;28;20096;-86
2022/07/13 09:17:34;;;;;;;0.70;0.20;;;29.20;83.60;;;;;;4165163;28;20523;-86
2022/07/13 09:19:54;;;;;;;2.30;0.20;;;28.90;81.50;;;;;;4148354;28;20049;-86
2022/07/13 09:22:15;;;;;;;1.67;0.30;;;29.00;85.10;;;;;;4141628;28;20061;-86
2022/07/13 09:24:47;;;;;;;0.20;0.20;;;29.50;79.40;;;;;;4160391;28;20099;-86
2022/07/13 09:27:07;;;;;;;0.95;0.20;;;29.10;79.60;;;;;;4146350;28;20099;-86
2022/07/13 09:29:28;;;;;;;0.20;0.20;;;29.00;85.30;;;;;;4148408;28;20076;-86
2022/07/13 09:31:50;;;;;;;0.20;0.20;;;29.00;84.00;;;;;;4163086;28;20123;-86
2022/07/13 09:34:12;;;;;;;0.20;0.20;;;29.20;80.40;;;;;;4163330;28;20053;-86
2022/07/13 09:36:33;;;;;;;1.35;0.28;;;29.30;81.90;;;;;;4163492;28;20099;-86
2022/07/13 09:38:54;;;;;;;0.20;0.20;;;29.60;88.60;;;;;;4148403;28;20105;-86
2022/07/13 09:41:18;;;;;;;1.13;0.20;;;29.60;79.10;;;;;;4148708;28;20084;-86
2022/07/13 09:46:32;;;;;;;0.65;0.20;;;29.70;82.40;;;;;;4162689;28;20515;-83
2022/07/13 09:48:54;;;;;;;0.20;0.20;;;29.90;82.30;;;;;;4163173;28;20099;-84
2022/07/13 09:51:26;;;;;;;0.17;0.17;;;30.10;80.80;;;;;;4148251;28;20061;-84
2022/07/13 09:53:47;;;;;;;0.20;0.20;;;29.90;77.40;;;;;;4147921;28;20052;-84
2022/07/13 09:56:10;;;;;;;0.20;0.20;;;30.10;78.40;;;;;;4148130;28;20141;-84
2022/07/13 09:58:35;;;;;;;0.20;0.20;;;29.70;76.00;;;;;;4148033;28;20056;-84
2022/07/13 10:00:58;;;;;;;0.20;0.20;;;29.40;76.50;;;;;;4162788;28;20059;-84
2022/07/13 10:03:20;;;;;;;0.20;0.20;;;29.60;79.30;;;;;;4147888;28;20057;-84
2022/07/13 10:05:42;;;;;;;0.20;0.20;;;29.90;76.60;;;;;;4147878;28;20604;-84
2022/07/13 10:08:03;;;;;;;1.00;0.20;;;29.80;73.20;;;;;;4162726;28;20056;-84
2022/07/13 10:10:24;;;;;;;0.20;0.20;;;30.10;80.60;;;;;;4147565;28;20529;-84
2022/07/13 10:12:45;;;;;;;0.20;0.20;;;30.60;77.90;;;;;;4162431;28;20535;-84
2022/07/13 10:15:06;;;;;;;1.63;0.30;;;30.50;75.60;;;;;;4147391;28;20112;-84
2022/07/13 10:17:27;;;;;;;0.20;0.20;;;30.40;73.30;;;;;;4162483;28;20455;-84
2022/07/13 10:20:18;;;;;;;1.75;0.20;;;30.40;78.30;;;;;;4162380;28;20064;-84
2022/07/13 10:22:48;;;;;;;0.20;0.20;;;30.90;76.00;;;;;;4162451;28;20139;-84
2022/07/13 10:25:09;;;;;;;1.05;0.20;;;30.90;78.10;;;;;;4162526;28;20056;-84
2022/07/13 10:27:32;;;;;;;0.98;0.20;;;30.70;74.40;;;;;;4147453;28;20611;-83
2022/07/13 10:29:59;;;;;;;0.40;0.20;;;30.50;74.40;;;;;;4143710;28;20591;-83
2022/07/13 10:32:28;;;;;;;0.38;0.20;;;30.60;74.30;;;;;;4144828;28;20169;-84
2022/07/13 10:34:58;;;;;;;0.20;0.20;;;30.70;73.70;;;;;;4154837;28;20579;-83
2022/07/13 10:37:18;;;;;;;0.20;0.20;;;30.90;74.40;;;;;;4139311;28;20100;-84
2022/07/13 10:39:39;;;;;;;0.20;0.20;;;31.00;79.40;;;;;;4153164;28;20048;-84
2022/07/13 10:42:02;;;;;;;0.20;0.20;;;31.30;75.50;;;;;;4154265;28;20422;-83
2022/07/13 10:44:38;;;;;;;0.10;0.10;;;31.20;78.30;;;;;;4145468;28;20053;-84
2022/07/13 10:46:59;;;;;;;0.20;0.20;;;31.30;74.10;;;;;;4147968;28;21086;-84
2022/07/13 10:49:37;;;;;;;0.90;0.20;;;31.30;76.30;;;;;;4145793;28;20064;-84
2022/07/13 10:52:19;;;;;;;0.38;0.38;;;31.20;72.10;;;;;;4150213;28;20052;-83
2022/07/13 10:55:11;;;;;;;0.20;0.20;;;31.10;72.10;;;;;;4154942;28;20653;-84
2022/07/13 10:57:41;;;;;;;0.20;0.20;;;30.80;73.60;;;;;;4138492;28;20061;-84
2022/07/13 11:00:28;;;;;;;0.20;0.20;;;31.40;74.50;;;;;;4141590;28;20149;-83
2022/07/13 11:02:49;;;;;;;0.28;0.20;;;31.30;71.90;;;;;;4158192;28;20079;-84
2022/07/13 11:05:11;;;;;;;0.25;0.10;;;31.60;72.40;;;;;;4144259;28;20500;-84
2022/07/13 11:07:43;;;;;;;0.20;0.20;;;31.80;74.70;;;;;;4162900;28;20056;-84
2022/07/13 11:10:23;;;;;;;0.10;0.10;;;31.50;76.20;;;;;;4163140;28;20095;-84
2022/07/13 11:13:02;;;;;;;0.20;0.20;;;31.50;76.60;;;;;;4157857;28;20052;-84
2022/07/13 11:15:23;;;;;;;0.95;0.20;;;32.00;72.80;;;;;;4146398;28;20105;-83
2022/07/13 11:17:52;;;;;;;0.10;0.10;;;31.90;71.20;;;;;;4152189;28;20044;-84
2022/07/13 11:20:13;;;;;;;0.20;0.20;;;31.90;69.50;;;;;;4157582;28;20138;-84
2022/07/13 11:25:23;;;;;;;0.75;0.20;;;32.20;72.20;;;;;;4161289;28;20056;-84
2022/07/13 11:27:58;;;;;;;0.17;0.10;;;31.90;70.50;;;;;;4161634;28;20080;-84
2022/07/13 11:30:29;;;;;;;0.20;0.20;;;32.00;69.40;;;;;;4161204;28;20515;-84
2022/07/13 11:32:50;;;;;;;0.10;0.10;;;32.30;74.60;;;;;;4161342;28;20404;-84
2022/07/13 11:35:11;;;;;;;0.20;0.20;;;32.50;77.00;;;;;;4146308;28;20577;-83
2022/07/13 11:37:32;;;;;;;0.52;0.10;;;32.30;74.60;;;;;;4161614;28;20060;-84
2022/07/13 11:39:53;;;;;;;0.17;0.17;;;32.50;70.50;;;;;;4146341;28;20096;-84
2022/07/13 11:42:13;;;;;;;0.13;0.13;;;32.50;70.80;;;;;;4160274;28;20057;-85
2022/07/13 11:44:36;;;;;;;1.20;0.20;;;32.60;73.10;;;;;;4151853;28;20447;-86
2022/07/13 11:47:07;;;;;;;0.20;0.20;;;32.20;68.00;;;;;;4145868;28;20092;-85
2022/07/13 11:49:45;;;;;;;0.20;0.20;;;31.70;70.00;;;;;;4148107;28;20228;-85
2022/07/13 11:52:05;;;;;;;0.20;0.20;;;31.70;72.70;;;;;;4147077;28;20184;-85
2022/07/13 11:54:26;;;;;;;0.28;0.20;;;31.90;72.50;;;;;;4147172;28;20092;-85
2022/07/13 11:56:57;;;;;;;0.85;0.20;;;32.00;71.90;;;;;;4146857;28;20052;-85
2022/07/13 11:59:40;;;;;;;0.20;0.20;;;31.80;68.00;;;;;;4131032;28;20161;-85
2022/07/13 12:02:02;;;;;;;0.65;0.20;;;31.10;70.80;;;;;;4159731;28;20055;-85
2022/07/13 12:04:25;;;;;;;0.15;0.15;;;31.40;74.30;;;;;;4146807;28;20052;-84
2022/07/13 12:06:46;;;;;;;0.20;0.20;;;31.40;69.10;;;;;;4146875;28;20104;-85
2022/07/13 12:09:17;;;;;;;0.25;0.20;;;31.60;72.70;;;;;;4161587;28;20456;-84
2022/07/13 12:11:37;;;;;;;0.20;0.20;;;31.70;68.70;;;;;;4161344;28;20063;-85
2022/07/13 12:13:59;;;;;;;0.20;0.20;;;30.70;68.20;;;;;;4146393;28;20061;-84
2022/07/13 12:16:19;;;;;;;1.33;0.17;;;31.00;67.90;;;;;;4161296;28;20413;-85
2022/07/13 12:19:04;;;;;;;2.22;0.20;;;31.50;72.10;;;;;;4133744;28;20387;-85
2022/07/13 12:21:26;;;;;;;0.85;0.20;;;32.30;73.50;;;;;;4130658;28;20111;-84
2022/07/13 12:23:48;;;;;;;0.35;0.10;;;32.60;68.50;;;;;;4139116;28;20048;-85
2022/07/13 12:26:09;;;;;;;;;;;32.30;67.50;;;;;;4158620;28;20095;-84
2022/07/13 12:28:31;;;;;;;0.20;0.20;;;32.20;69.00;;;;;;4151997;28;19928;-84
2022/07/13 12:31:00;;;;;;;0.13;0.10;;;32.40;70.00;;;;;;4131776;28;20060;-85
2022/07/13 12:33:23;;;;;;;0.20;0.20;;;32.30;67.10;;;;;;4140416;28;20128;-84
2022/07/13 12:35:45;;;;;;;0.13;0.13;;;32.70;69.20;;;;;;4160229;28;20043;-84